Time;durP1;ratioP1;P1;durP2;ratioP2;P2;SDS_P1;SDS_P2;PMS_P1;PMS_P2;Temp;Humidity;BMP_temperature;BMP_pressure;BME280_temperature;BME280_humidity;BME280_pressure;Samples;Min_cycle;Max_cycle;Signal;HPM_P1;HPM_P2
2024/01/05 00:02:10;;;;;;;12.10;7.50;;;;;;;6.00;96.00;97858.30;78214;1297;3026417;-70
2024/01/05 00:04:36;;;;;;;11.00;7.10;;;;;;;6.17;94.13;97854.23;79702;1299;3018963;-70
2024/01/05 00:07:03;;;;;;;10.20;6.80;;;;;;;6.30;93.69;97849.89;79288;1297;3013272;-79
2024/01/05 00:09:31;;;;;;;10.50;7.40;;;;;;;6.39;93.10;97846.82;78075;1300;3028331;-70
2024/01/05 00:11:58;;;;;;;11.30;7.70;;;;;;;6.20;93.01;97854.17;79352;1297;3013699;-72
2024/01/05 00:14:25;;;;;;;18.10;8.10;;;;;;;6.03;93.21;97858.65;79398;1300;3011593;-72
2024/01/05 00:16:55;;;;;;;11.50;6.90;;;;;;;5.99;93.22;97860.93;78483;1300;3027569;-68
2024/01/05 00:19:22;;;;;;;10.00;5.90;;;;;;;6.04;93.21;97853.02;79655;1294;3011640;-71
2024/01/05 00:21:51;;;;;;;13.20;7.90;;;;;;;6.17;92.21;97849.34;79126;1295;3011853;-70
2024/01/05 00:24:17;;;;;;;11.50;7.30;;;;;;;6.08;92.35;97852.36;79509;1295;3013011;-69
2024/01/05 00:26:44;;;;;;;11.50;7.60;;;;;;;5.81;93.64;97853.31;79562;1295;3011551;-66
2024/01/05 00:29:12;;;;;;;16.10;9.00;;;;;;;5.78;94.47;97854.20;78304;1295;3026007;-71
2024/01/05 00:31:39;;;;;;;17.20;8.30;;;;;;;5.55;95.39;97859.70;79538;1299;3018619;-72
2024/01/05 00:34:06;;;;;;;11.30;6.80;;;;;;;5.50;96.19;97864.39;79734;1295;3013653;-68
2024/01/05 00:36:34;;;;;;;11.60;7.40;;;;;;;6.17;95.60;97864.27;78248;1299;3026704;-68
2024/01/05 00:39:00;;;;;;;12.30;7.10;;;;;;;6.82;92.91;97854.21;79587;1294;3013556;-72
2024/01/05 00:41:27;;;;;;;10.90;7.40;;;;;;;6.77;90.48;97853.18;79240;1294;3011646;-75
2024/01/05 00:43:55;;;;;;;10.00;6.70;;;;;;;6.55;90.47;97853.33;78197;1300;3027022;-67
2024/01/05 00:46:21;;;;;;;11.50;7.40;;;;;;;6.21;90.98;97850.48;79467;1300;3012995;-65
2024/01/05 00:48:48;;;;;;;15.80;8.10;;;;;;;5.91;92.20;97852.10;79555;1298;3012087;-67
2024/01/05 00:51:16;;;;;;;12.70;7.50;;;;;;;5.66;93.50;97850.84;78294;1294;3026255;-72
2024/01/05 00:53:42;;;;;;;11.10;6.60;;;;;;;5.42;95.38;97847.52;79623;1295;3014056;-66
2024/01/05 00:56:09;;;;;;;13.50;7.60;;;;;;;5.91;94.71;97835.74;79511;1296;3012993;-69
2024/01/05 00:58:37;;;;;;;13.70;7.60;;;;;;;6.60;92.37;97827.09;78231;1300;3028407;-65
2024/01/05 01:01:06;;;;;;;10.20;6.60;;;;;;;6.45;90.69;97832.96;79415;1300;3012681;-67
2024/01/05 01:03:36;;;;;;;11.30;6.90;;;;;;;6.00;91.95;97852.04;78901;1295;3012047;-72
2024/01/05 01:06:03;;;;;;;13.40;8.40;;;;;;;5.87;93.16;97850.15;79557;1298;3013638;-66
2024/01/05 01:08:30;;;;;;;14.60;8.60;;;;;;;5.71;93.73;97844.06;79451;1300;3011617;-70
2024/01/05 01:11:00;;;;;;;19.80;9.50;;;;;;;5.64;94.16;97839.52;78202;1297;3026207;-68
2024/01/05 01:13:27;;;;;;;8.70;5.80;;;;;;;5.33;95.30;97850.71;79602;1297;3012966;-71
2024/01/05 01:15:53;;;;;;;10.70;5.90;;;;;;;5.95;95.17;97861.70;80052;1294;3011520;-70
2024/01/05 01:18:21;;;;;;;9.90;6.60;;;;;;;6.31;91.60;97849.29;78156;1299;3052326;-72
2024/01/05 01:20:48;;;;;;;8.40;5.80;;;;;;;6.04;91.77;97850.94;79566;1298;3013701;-73
2024/01/05 01:23:15;;;;;;;8.20;5.70;;;;;;;5.77;92.90;97851.66;79483;1299;3013109;-71
2024/01/05 01:25:43;;;;;;;11.50;7.10;;;;;;;5.45;94.28;97853.92;78243;1295;3048766;-71
2024/01/05 01:28:10;;;;;;;9.60;7.00;;;;;;;5.44;94.84;97850.52;79588;1300;3013596;-71
2024/01/05 01:30:36;;;;;;;9.00;5.50;;;;;;;5.23;95.56;97842.62;79465;1298;3011849;-68
2024/01/05 01:33:04;;;;;;;10.80;6.50;;;;;;;5.60;96.00;97847.02;78388;1300;3028395;-73
2024/01/05 01:35:31;;;;;;;9.90;6.20;;;;;;;5.87;93.66;97837.79;80043;1295;3018390;-73
2024/01/05 01:37:58;;;;;;;9.10;6.30;;;;;;;5.83;93.59;97842.95;79527;1300;3011888;-66
2024/01/05 01:40:26;;;;;;;9.90;6.60;;;;;;;5.82;93.37;97836.93;78508;1296;3026775;-71
2024/01/05 01:42:53;;;;;;;10.00;6.60;;;;;;;5.73;93.77;97830.73;79539;1300;3018476;-69
2024/01/05 01:45:20;;;;;;;11.30;6.60;;;;;;;5.59;93.89;97827.98;79424;1300;3013079;-72
2024/01/05 01:47:49;;;;;;;8.70;5.40;;;;;;;5.38;94.62;97824.66;78186;1300;3025606;-71
2024/01/05 01:50:15;;;;;;;12.40;6.00;;;;;;;5.57;94.53;97833.69;79377;1300;3014746;-72
2024/01/05 01:52:43;;;;;;;12.90;7.40;;;;;;;5.72;93.27;97830.77;79349;1300;3011621;-71
2024/01/05 01:55:11;;;;;;;12.70;7.30;;;;;;;5.76;93.69;97827.04;78228;1296;3048224;-66
2024/01/05 01:57:38;;;;;;;10.20;6.10;;;;;;;5.63;93.98;97831.70;79455;1299;3018475;-68
2024/01/05 02:00:06;;;;;;;12.30;7.50;;;;;;;5.51;94.75;97841.21;79465;1297;3011584;-74
2024/01/05 02:03:32;;;;;;;16.10;7.50;;;;;;;5.28;95.80;97846.70;80271;1301;3011676;-65
2024/01/05 02:05:59;;;;;;;12.70;6.50;;;;;;;5.03;97.46;97845.64;79036;1302;3013555;-77
2024/01/05 02:08:27;;;;;;;14.60;7.60;;;;;;;5.53;96.64;97843.64;79090;1304;3011707;-74
2024/01/05 02:10:55;;;;;;;13.70;7.10;;;;;;;6.18;94.15;97849.09;78181;1303;3052217;-73
2024/01/05 02:13:22;;;;;;;10.60;6.80;;;;;;;5.98;92.31;97857.75;79289;1303;3018759;-65
2024/01/05 02:15:48;;;;;;;11.30;7.60;;;;;;;5.51;94.02;97855.41;79096;1298;3012996;-76
2024/01/05 02:18:16;;;;;;;13.10;7.90;;;;;;;5.47;94.75;97844.41;78236;1301;3029616;-71
2024/01/05 02:20:44;;;;;;;18.10;7.30;;;;;;;5.21;95.98;97859.45;79551;1300;3013172;-68
2024/01/05 02:23:25;;;;;;;11.90;6.70;;;;;;;5.03;96.81;97853.15;79424;1301;3011793;-72
2024/01/05 02:25:55;;;;;;;9.20;6.20;;;;;;;5.68;96.30;97856.21;78246;1300;3052667;-68
2024/01/05 02:28:22;;;;;;;11.30;6.30;;;;;;;5.70;94.18;97855.77;79406;1298;3011501;-76
2024/01/05 02:30:55;;;;;;;10.00;6.50;;;;;;;5.72;94.52;97859.48;79122;1297;3011536;-78
2024/01/05 02:33:22;;;;;;;9.30;6.20;;;;;;;5.18;95.67;97858.09;79576;1301;3011670;-74
2024/01/05 02:35:50;;;;;;;10.50;6.60;;;;;;;5.02;97.32;97863.25;78321;1298;3047970;-69
2024/01/05 02:38:18;;;;;;;9.80;6.70;;;;;;;4.76;98.93;97860.74;79551;1301;3012839;-75
2024/01/05 02:40:45;;;;;;;9.70;6.30;;;;;;;4.68;99.96;97858.44;79377;1298;3013618;-73
2024/01/05 02:43:12;;;;;;;8.70;5.40;;;;;;;5.27;99.54;97854.56;78188;1300;3052813;-72
2024/01/05 02:45:39;;;;;;;12.60;6.80;;;;;;;5.75;96.49;97851.92;79418;1301;3013643;-74
2024/01/05 02:48:06;;;;;;;13.80;7.70;;;;;;;5.84;95.09;97849.26;79425;1301;3011769;-70
2024/01/05 02:50:34;;;;;;;8.70;5.40;;;;;;;5.93;94.26;97857.52;78324;1298;3026427;-75
2024/01/05 02:53:01;;;;;;;15.00;7.30;;;;;;;5.57;93.89;97853.11;79477;1299;3013764;-75
2024/01/05 02:55:27;;;;;;;14.50;7.00;;;;;;;5.37;94.87;97852.54;79436;1300;3012903;-69
2024/01/05 02:57:55;;;;;;;9.90;5.70;;;;;;;5.16;95.98;97856.65;78206;1295;3025399;-68
2024/01/05 03:00:22;;;;;;;9.40;5.80;;;;;;;5.55;95.20;97855.02;79447;1298;3012894;-77
2024/01/05 03:02:49;;;;;;;9.60;6.10;;;;;;;5.93;93.21;97857.38;79494;1300;3012859;-73
2024/01/05 03:05:17;;;;;;;8.20;5.70;;;;;;;5.98;92.75;97859.80;78229;1301;3028591;-74
2024/01/05 03:07:43;;;;;;;9.50;6.00;;;;;;;5.89;92.49;97860.75;79462;1299;3013438;-67
2024/01/05 03:10:10;;;;;;;8.30;5.20;;;;;;;5.66;93.03;97858.31;79401;1301;3011794;-67
2024/01/05 03:12:38;;;;;;;15.50;7.60;;;;;;;5.34;93.89;97865.92;78324;1298;3027222;-71
2024/01/05 03:15:05;;;;;;;9.90;5.40;;;;;;;5.06;95.87;97857.28;79454;1300;3019082;-67
2024/01/05 03:17:32;;;;;;;11.80;6.60;;;;;;;5.64;95.20;97852.14;79403;1298;3011633;-74
2024/01/05 03:20:00;;;;;;;11.80;6.70;;;;;;;6.10;92.45;97846.33;78229;1298;3025918;-74
2024/01/05 03:22:27;;;;;;;9.70;6.30;;;;;;;6.17;91.61;97845.89;79467;1298;3018999;-74
2024/01/05 03:24:53;;;;;;;13.20;7.50;;;;;;;5.85;91.41;97859.27;79515;1301;3012306;-66
2024/01/05 03:27:21;;;;;;;10.10;6.60;;;;;;;5.65;92.77;97858.31;78287;1298;3028858;-75
2024/01/05 03:29:49;;;;;;;11.10;6.60;;;;;;;5.52;93.52;97856.63;79447;1296;3018450;-67
2024/01/05 03:32:15;;;;;;;16.90;7.00;;;;;;;5.47;94.37;97852.05;79391;1296;3011660;-71
2024/01/05 03:34:43;;;;;;;10.20;5.00;;;;;;;5.45;94.76;97854.25;78328;1300;3049775;-75
2024/01/05 03:37:10;;;;;;;12.70;7.60;;;;;;;5.81;93.50;97849.14;79463;1300;3018394;-66
2024/01/05 03:39:37;;;;;;;15.50;7.80;;;;;;;6.38;91.31;97852.06;79521;1300;3011879;-68
2024/01/05 03:42:04;;;;;;;9.90;6.30;;;;;;;6.49;90.22;97846.46;78127;1300;3026033;-75
2024/01/05 03:44:31;;;;;;;14.00;7.80;;;;;;;6.23;90.26;97849.83;79577;1301;3013403;-74
2024/01/05 03:46:58;;;;;;;13.70;7.70;;;;;;;6.08;90.94;97846.77;79506;1301;3013186;-68
2024/01/05 03:49:26;;;;;;;16.10;8.00;;;;;;;5.89;91.58;97857.08;78194;1298;3026367;-79
2024/01/05 03:51:52;;;;;;;22.00;9.50;;;;;;;5.65;92.05;97856.27;79496;1298;3018375;-68
2024/01/05 03:54:19;;;;;;;15.60;7.90;;;;;;;5.49;93.27;97853.17;79463;1301;3011551;-74
2024/01/05 03:56:47;;;;;;;15.70;7.80;;;;;;;5.68;93.24;97859.01;78176;1301;3028587;-71
2024/01/05 03:59:14;;;;;;;14.60;8.40;;;;;;;6.09;91.73;97863.42;79516;1297;3013750;-70
2024/01/05 04:01:44;;;;;;;12.90;8.40;;;;;;;6.04;91.05;97869.89;79375;1298;3011783;-68
2024/01/05 04:04:12;;;;;;;12.20;6.90;;;;;;;5.88;91.69;97876.33;78321;1299;3049036;-75
2024/01/05 04:06:39;;;;;;;10.80;6.30;;;;;;;5.72;92.56;97884.30;79413;1297;3013155;-70
2024/01/05 04:09:09;;;;;;;11.40;6.40;;;;;;;5.43;93.85;97894.34;79478;1299;3011508;-69
2024/01/05 04:11:38;;;;;;;10.10;5.40;;;;;;;5.09;95.58;97898.59;78240;1301;3053572;-74
2024/01/05 04:14:05;;;;;;;10.00;5.00;;;;;;;5.39;95.93;97905.02;79565;1300;3013614;-76
2024/01/05 04:16:32;;;;;;;11.70;5.70;;;;;;;5.66;94.72;97907.44;79558;1298;3011904;-69
2024/01/05 04:19:01;;;;;;;11.20;6.00;;;;;;;5.69;93.61;97906.39;78198;1298;3048700;-66
2024/01/05 04:21:27;;;;;;;11.80;6.70;;;;;;;5.43;94.08;97902.52;79299;1298;3013301;-72
2024/01/05 04:23:55;;;;;;;11.90;7.30;;;;;;;5.45;94.46;97897.01;79303;1299;3013659;-68
2024/01/05 04:26:23;;;;;;;14.20;6.50;;;;;;;5.33;94.47;97901.92;78061;1298;3054428;-72
2024/01/05 04:28:50;;;;;;;7.40;4.90;;;;;;;5.10;95.30;97897.80;79461;1298;3013327;-68
2024/01/05 04:31:16;;;;;;;8.90;5.10;;;;;;;5.61;94.66;97893.86;79533;1298;3011638;-72
2024/01/05 04:33:44;;;;;;;10.50;5.20;;;;;;;6.40;92.08;97889.17;78551;1297;3026593;-69
2024/01/05 04:36:15;;;;;;;11.40;6.90;;;;;;;6.58;90.71;97888.61;79410;1299;3013281;-63
2024/01/05 04:38:43;;;;;;;16.80;9.80;;;;;;;6.31;89.71;97892.02;78377;1301;3052590;-74
2024/01/05 04:41:11;;;;;;;16.20;8.40;;;;;;;6.07;90.19;97890.52;79661;1298;3018134;-73
2024/01/05 04:43:38;;;;;;;15.90;9.30;;;;;;;5.97;90.89;97893.45;79387;1298;3013541;-70
2024/01/05 04:46:06;;;;;;;13.80;8.30;;;;;;;5.67;91.47;97899.56;78051;1301;3056619;-74
2024/01/05 04:48:34;;;;;;;9.40;5.40;;;;;;;5.47;92.68;97904.00;79491;1298;3013772;-70
2024/01/05 04:51:01;;;;;;;13.70;6.90;;;;;;;5.99;92.38;97901.31;79817;1295;3012039;-67
2024/01/05 04:53:29;;;;;;;12.70;6.90;;;;;;;6.60;89.58;97897.39;78240;1300;3052626;-70
2024/01/05 04:55:55;;;;;;;10.30;6.30;;;;;;;6.42;88.57;97908.54;79228;1301;3012961;-68
2024/01/05 04:58:23;;;;;;;14.50;8.70;;;;;;;6.12;89.22;97912.79;79548;1297;3011810;-67
2024/01/05 05:00:52;;;;;;;16.10;8.20;;;;;;;5.82;90.46;97916.14;78445;1295;3055851;-66
2024/01/05 05:03:18;;;;;;;15.20;8.80;;;;;;;5.47;92.42;97917.71;80044;1297;3013251;-74
2024/01/05 05:05:45;;;;;;;16.10;8.60;;;;;;;5.35;93.60;97919.66;80127;1295;3011388;-68
2024/01/05 05:08:14;;;;;;;13.20;7.70;;;;;;;5.28;94.57;97920.12;79013;1301;3025417;-76
2024/01/05 05:10:41;;;;;;;16.50;8.80;;;;;;;5.48;94.44;97928.17;80539;1299;3012890;-63
2024/01/05 05:13:09;;;;;;;15.10;7.90;;;;;;;5.88;92.58;97931.33;80512;1296;3011601;-69
2024/01/05 05:15:38;;;;;;;11.30;6.70;;;;;;;6.13;91.40;97935.86;79486;1295;3056763;-62
2024/01/05 05:18:04;;;;;;;15.70;7.80;;;;;;;5.96;90.95;97932.98;80837;1295;3013322;-64
2024/01/05 05:20:31;;;;;;;16.50;9.20;;;;;;;5.88;91.27;97927.73;80500;1299;3012853;-62
2024/01/05 05:22:59;;;;;;;17.60;8.90;;;;;;;5.50;91.97;97930.38;79316;1298;3052680;-64
2024/01/05 05:25:26;;;;;;;16.80;8.50;;;;;;;5.41;92.86;97935.96;80681;1295;3018435;-66
2024/01/05 05:27:53;;;;;;;15.20;7.80;;;;;;;5.40;93.37;97940.72;80744;1295;3011571;-63
2024/01/05 05:30:21;;;;;;;14.90;7.90;;;;;;;6.05;92.15;97940.88;79274;1295;3025698;-64
2024/01/05 05:32:47;;;;;;;15.20;7.10;;;;;;;6.34;89.89;97945.36;79948;1296;3018364;-73
2024/01/05 05:35:14;;;;;;;14.80;8.10;;;;;;;6.37;89.15;97951.64;79503;1296;3012855;-73
2024/01/05 05:37:42;;;;;;;16.00;10.20;;;;;;;5.98;89.56;97949.36;78367;1297;3026738;-70
2024/01/05 05:40:09;;;;;;;18.70;9.30;;;;;;;5.74;90.86;97950.50;79720;1299;3015779;-74
2024/01/05 05:42:36;;;;;;;15.90;9.00;;;;;;;5.62;91.00;97951.64;79528;1300;3011514;-73
2024/01/05 05:45:04;;;;;;;15.00;7.10;;;;;;;5.27;92.26;97950.00;78186;1295;3026673;-77
2024/01/05 05:47:31;;;;;;;9.60;5.30;;;;;;;4.95;94.20;97952.05;79502;1296;3013217;-68
2024/01/05 05:49:57;;;;;;;7.50;5.40;;;;;;;5.20;94.26;97953.45;79503;1297;3011606;-70
2024/01/05 05:52:26;;;;;;;12.80;6.50;;;;;;;5.53;92.64;97953.25;78282;1297;3052186;-73
2024/01/05 05:54:52;;;;;;;10.00;5.70;;;;;;;5.60;92.03;97951.63;79667;1295;3018472;-75
2024/01/05 05:57:19;;;;;;;15.10;7.70;;;;;;;5.58;91.72;97954.54;79486;1296;3011631;-70
2024/01/05 05:59:47;;;;;;;11.40;6.70;;;;;;;5.37;92.02;97956.02;78266;1295;3026241;-72
2024/01/05 06:02:13;;;;;;;14.80;7.50;;;;;;;5.06;93.21;97960.02;79584;1301;3013700;-70
2024/01/05 06:04:40;;;;;;;17.30;9.40;;;;;;;4.79;94.70;97961.15;79455;1295;3011404;-69
2024/01/05 06:07:08;;;;;;;14.10;7.20;;;;;;;4.67;95.42;97965.71;78389;1296;3028529;-67
2024/01/05 06:09:35;;;;;;;11.60;7.00;;;;;;;4.98;95.57;97967.26;79661;1301;3013181;-68
2024/01/05 06:12:01;;;;;;;8.80;5.30;;;;;;;5.51;93.70;97963.63;79563;1298;3013500;-78
2024/01/05 06:14:29;;;;;;;8.10;5.80;;;;;;;5.54;92.45;97965.89;78285;1300;3028642;-69
2024/01/05 06:16:56;;;;;;;9.80;6.00;;;;;;;5.55;92.15;97964.95;79446;1296;3013458;-67
2024/01/05 06:19:23;;;;;;;11.70;6.40;;;;;;;5.32;92.55;97966.73;79491;1298;3011727;-67
2024/01/05 06:21:51;;;;;;;10.30;6.30;;;;;;;5.22;93.16;97973.96;78449;1296;3026362;-66
2024/01/05 06:24:18;;;;;;;13.10;6.90;;;;;;;4.94;94.00;97974.98;79978;1298;3013381;-70
2024/01/05 06:26:44;;;;;;;9.50;5.10;;;;;;;4.57;96.24;97977.92;79335;1300;3011800;-66
2024/01/05 06:29:12;;;;;;;9.80;5.60;;;;;;;5.13;96.31;97986.48;78306;1296;3028000;-64
2024/01/05 06:31:39;;;;;;;10.30;6.10;;;;;;;5.32;94.07;97983.06;79418;1296;3013288;-64
2024/01/05 06:34:06;;;;;;;28.10;10.90;;;;;;;5.32;93.69;97987.43;79451;1295;3013949;-68
2024/01/05 06:36:34;;;;;;;15.90;8.90;;;;;;;5.64;92.96;97992.85;78294;1300;3026387;-68
2024/01/05 06:39:00;;;;;;;17.80;10.20;;;;;;;5.58;91.63;97995.14;79592;1296;3013547;-71
2024/01/05 06:41:27;;;;;;;22.60;12.10;;;;;;;5.07;93.19;97993.31;79549;1295;3013255;-71
2024/01/05 06:43:56;;;;;;;9.60;5.50;;;;;;;4.92;94.82;97998.19;78581;1295;3025815;-71
2024/01/05 06:46:23;;;;;;;13.60;8.00;;;;;;;5.32;94.39;97996.44;79913;1301;3013134;-73
2024/01/05 06:48:50;;;;;;;18.00;10.20;;;;;;;5.68;92.72;97999.91;79554;1296;3012113;-72
2024/01/05 06:51:18;;;;;;;17.30;10.60;;;;;;;6.01;91.58;98001.83;78277;1299;3052213;-72
2024/01/05 06:53:45;;;;;;;14.80;8.00;;;;;;;5.68;91.06;97998.49;79625;1298;3014726;-72
2024/01/05 06:56:12;;;;;;;12.00;7.20;;;;;;;5.52;91.91;98000.23;79518;1295;3011536;-68
2024/01/05 06:58:40;;;;;;;12.30;6.90;;;;;;;5.34;92.48;98001.66;78296;1295;3057794;-76
2024/01/05 07:01:06;;;;;;;15.30;6.40;;;;;;;5.16;93.84;97999.16;79597;1300;3019457;-70
2024/01/05 07:03:33;;;;;;;20.20;8.00;;;;;;;5.69;92.87;98000.20;79603;1297;3011382;-66
2024/01/05 07:06:01;;;;;;;49.00;14.00;;;;;;;6.11;90.30;97997.48;78430;1295;3024785;-70
2024/01/05 07:08:28;;;;;;;42.00;13.90;;;;;;;6.07;89.88;98002.29;79707;1300;3013724;-74
2024/01/05 07:10:54;;;;;;;26.10;9.90;;;;;;;6.15;89.31;98007.34;79647;1297;3013716;-69
2024/01/05 07:13:22;;;;;;;43.30;14.00;;;;;;;5.71;89.75;98011.88;78297;1295;3056167;-71
2024/01/05 07:15:49;;;;;;;33.70;13.20;;;;;;;5.57;90.85;98017.77;79516;1295;3018466;-71
2024/01/05 07:18:15;;;;;;;30.50;11.20;;;;;;;5.22;92.07;98022.40;79486;1295;3011549;-73
2024/01/05 07:20:43;;;;;;;25.60;9.60;;;;;;;5.54;92.26;98020.04;78315;1295;3026698;-71
2024/01/05 07:23:10;;;;;;;20.60;8.90;;;;;;;6.30;90.67;98022.68;79646;1301;3020834;-75
2024/01/05 07:25:37;;;;;;;20.90;10.70;;;;;;;6.32;89.02;98024.70;79459;1300;3011987;-64
2024/01/05 07:28:05;;;;;;;22.90;10.60;;;;;;;6.19;89.27;98027.92;78499;1295;3026408;-67
2024/01/05 07:30:32;;;;;;;18.90;9.70;;;;;;;6.07;89.36;98038.14;79466;1296;3013334;-65
2024/01/05 07:32:59;;;;;;;16.30;8.40;;;;;;;5.96;89.23;98036.86;79420;1295;3011263;-74
2024/01/05 07:35:28;;;;;;;18.70;9.70;;;;;;;5.44;91.13;98047.59;78278;1300;3025980;-71
2024/01/05 07:37:54;;;;;;;16.20;7.90;;;;;;;5.47;92.58;98048.61;79575;1299;3011629;-69
2024/01/05 07:40:21;;;;;;;19.70;9.50;;;;;;;6.03;90.23;98045.83;79563;1297;3012558;-72
2024/01/05 07:42:49;;;;;;;21.60;10.60;;;;;;;6.34;89.56;98052.49;78412;1300;3056793;-75
2024/01/05 07:45:16;;;;;;;16.30;8.60;;;;;;;6.12;89.29;98055.16;79473;1296;3012916;-73
2024/01/05 07:47:43;;;;;;;20.70;10.10;;;;;;;6.22;89.21;98053.30;79588;1295;3011653;-71
2024/01/05 07:50:10;;;;;;;24.10;10.70;;;;;;;5.83;90.17;98063.77;78780;1301;3028648;-74
2024/01/05 07:52:37;;;;;;;24.10;11.80;;;;;;;5.65;91.37;98072.03;79543;1295;3012902;-68
2024/01/05 07:55:05;;;;;;;26.10;12.60;;;;;;;5.66;91.85;98067.07;79867;1300;3011700;-68
2024/01/05 07:57:33;;;;;;;21.60;10.70;;;;;;;6.40;90.35;98074.92;78567;1301;3056276;-70
2024/01/05 08:00:00;;;;;;;17.80;9.80;;;;;;;6.32;89.63;98080.10;79555;1295;3013307;-74
2024/01/05 08:02:26;;;;;;;17.90;9.30;;;;;;;6.39;89.78;98081.94;80611;1295;3013420;-69
2024/01/05 08:04:54;;;;;;;19.70;9.90;;;;;;;6.55;88.78;98086.25;80329;1295;3027399;-74
2024/01/05 08:07:21;;;;;;;19.60;10.10;;;;;;;6.29;88.95;98091.30;80657;1295;3018607;-70
2024/01/05 08:09:52;;;;;;;18.50;10.30;;;;;;;6.11;89.75;98089.64;80026;1296;3011923;-71
2024/01/05 08:12:20;;;;;;;15.60;9.20;;;;;;;6.13;89.90;98092.46;78373;1300;3054954;-75
2024/01/05 08:14:47;;;;;;;21.40;10.10;;;;;;;6.57;89.63;98094.61;79790;1295;3014048;-69
2024/01/05 08:17:14;;;;;;;23.20;10.80;;;;;;;6.87;87.99;98087.10;79604;1295;3011900;-75
2024/01/05 08:19:42;;;;;;;21.00;11.20;;;;;;;7.18;87.20;98094.06;78405;1299;3025656;-68
2024/01/05 08:22:09;;;;;;;21.90;12.40;;;;;;;7.21;86.28;98090.89;79531;1296;3011849;-69
2024/01/05 08:24:38;;;;;;;23.60;12.00;;;;;;;6.97;86.28;98092.35;79685;1300;3011622;-71
2024/01/05 08:27:06;;;;;;;21.90;12.40;;;;;;;6.70;86.93;98094.67;78226;1301;3055615;-71
2024/01/05 08:29:34;;;;;;;23.10;14.10;;;;;;;6.52;87.78;98099.69;79648;1295;3014967;-70
2024/01/05 08:32:02;;;;;;;16.60;9.80;;;;;;;6.27;89.40;98097.17;79523;1295;3011711;-79
2024/01/05 08:34:31;;;;;;;25.30;13.00;;;;;;;6.75;89.27;98107.17;78545;1301;3053014;-78
2024/01/05 08:36:57;;;;;;;25.40;14.50;;;;;;;7.04;87.76;98116.65;79775;1296;3013788;-75
2024/01/05 08:39:24;;;;;;;26.90;15.00;;;;;;;7.37;86.50;98121.36;79988;1298;3012014;-73
2024/01/05 08:41:53;;;;;;;27.40;15.10;;;;;;;7.03;86.96;98115.49;78549;1295;3026647;-67
2024/01/05 08:44:20;;;;;;;32.80;16.60;;;;;;;6.96;87.21;98120.44;79550;1295;3013318;-68
2024/01/05 08:46:47;;;;;;;28.90;15.90;;;;;;;6.72;87.64;98124.66;79537;1295;3011637;-75
2024/01/05 08:49:15;;;;;;;30.70;15.90;;;;;;;6.32;88.82;98120.33;78489;1299;3053456;-73
2024/01/05 08:51:42;;;;;;;20.90;11.30;;;;;;;6.10;91.12;98124.70;79564;1300;3012951;-67
2024/01/05 08:54:10;;;;;;;22.20;11.50;;;;;;;6.74;90.22;98127.30;79584;1295;3013424;-71
2024/01/05 08:56:38;;;;;;;20.70;12.10;;;;;;;7.28;86.98;98125.08;78377;1295;3055758;-73
2024/01/05 08:59:04;;;;;;;21.70;12.40;;;;;;;7.41;86.21;98128.58;79693;1295;3012978;-74
2024/01/05 09:01:34;;;;;;;24.40;14.70;;;;;;;7.15;86.69;98130.52;79446;1295;3011628;-70
2024/01/05 09:04:05;;;;;;;23.40;14.90;;;;;;;7.25;86.74;98126.52;78442;1300;3052343;-70
2024/01/05 09:06:32;;;;;;;22.60;13.80;;;;;;;7.17;86.93;98130.70;79604;1301;3014063;-73
2024/01/05 09:09:01;;;;;;;32.50;15.80;;;;;;;7.11;86.23;98130.09;78272;1298;3028084;-73
2024/01/05 09:11:27;;;;;;;32.40;16.90;;;;;;;6.95;86.90;98134.63;79512;1296;3013413;-71
2024/01/05 09:13:54;;;;;;;20.00;10.60;;;;;;;6.82;87.81;98135.51;79389;1295;3011711;-69
2024/01/05 09:16:22;;;;;;;23.70;11.90;;;;;;;7.55;87.02;98134.21;78452;1295;3025815;-72
2024/01/05 09:18:49;;;;;;;26.90;14.30;;;;;;;7.79;84.85;98138.98;79589;1298;3011560;-71
2024/01/05 09:21:15;;;;;;;28.60;14.70;;;;;;;7.90;84.20;98134.55;79527;1301;3011672;-64
2024/01/05 09:23:43;;;;;;;24.20;13.80;;;;;;;7.72;84.49;98138.46;78378;1300;3068048;-69
2024/01/05 09:26:14;;;;;;;30.90;16.30;;;;;;;7.62;84.76;98130.58;79616;1295;3020729;-69
2024/01/05 09:28:42;;;;;;;26.10;14.80;;;;;;;7.59;85.14;98125.26;78601;1298;3049532;-70
2024/01/05 09:31:12;;;;;;;32.50;14.90;;;;;;;7.42;85.48;98124.50;79596;1299;3012881;-71
2024/01/05 09:33:41;;;;;;;26.80;13.70;;;;;;;7.36;86.07;98128.58;79225;1301;3011556;-66
2024/01/05 09:36:08;;;;;;;23.50;11.90;;;;;;;7.40;86.00;98132.68;79660;1296;3013171;-65
2024/01/05 09:38:38;;;;;;;29.00;15.80;;;;;;;7.84;85.70;98131.34;79665;1300;3013568;-73
2024/01/05 09:41:09;;;;;;;33.50;16.10;;;;;;;8.23;83.95;98130.98;78363;1295;3049778;-68
2024/01/05 09:43:35;;;;;;;30.30;16.30;;;;;;;8.36;83.45;98139.52;79658;1298;3011651;-66
2024/01/05 09:46:04;;;;;;;22.10;14.80;;;;;;;8.13;83.86;98147.25;78928;1295;3011789;-69
2024/01/05 09:48:31;;;;;;;23.30;13.00;;;;;;;7.97;84.51;98148.35;79556;1296;3013739;-73
2024/01/05 09:50:58;;;;;;;23.10;12.10;;;;;;;7.95;83.64;98157.95;79578;1301;3011623;-65
2024/01/05 09:53:25;;;;;;;25.10;13.20;;;;;;;7.52;85.06;98156.92;78187;1301;3025995;-75
2024/01/05 09:55:52;;;;;;;19.20;12.00;;;;;;;7.45;85.88;98149.73;79797;1301;3013783;-74
2024/01/05 09:58:19;;;;;;;21.80;10.50;;;;;;;7.35;86.67;98148.81;79715;1300;3011479;-69
2024/01/05 10:00:48;;;;;;;22.00;10.80;;;;;;;7.92;86.12;98148.05;78321;1298;3028837;-70
2024/01/05 10:03:23;;;;;;;23.70;11.40;;;;;;;8.62;84.06;98141.60;79858;1295;3011629;-75
2024/01/05 10:05:54;;;;;;;22.80;11.80;;;;;;;8.66;82.68;98139.45;78265;1299;3051021;-76
2024/01/05 10:08:22;;;;;;;26.40;13.30;;;;;;;8.37;83.25;98144.13;79646;1300;3013698;-71
2024/01/05 10:11:01;;;;;;;22.30;12.30;;;;;;;8.26;83.86;98145.96;78285;1301;3025694;-65
2024/01/05 10:13:29;;;;;;;23.80;14.60;;;;;;;8.11;84.11;98150.48;78641;1295;3069297;-72
2024/01/05 10:16:02;;;;;;;24.50;13.00;;;;;;;8.06;84.09;98146.04;79997;1299;3019049;-70
2024/01/05 10:18:30;;;;;;;22.40;12.80;;;;;;;7.91;85.09;98148.64;78491;1298;3049315;-70
2024/01/05 10:21:19;;;;;;;22.60;10.40;;;;;;;7.91;85.45;98152.61;79721;1298;3013102;-68
2024/01/05 10:23:47;;;;;;;23.00;11.80;;;;;;;8.57;84.53;98150.05;78387;1300;3052780;-73
2024/01/05 10:26:17;;;;;;;22.50;10.50;;;;;;;8.98;83.17;98147.51;79774;1295;3012864;-70
2024/01/05 10:28:48;;;;;;;28.80;13.20;;;;;;;9.06;82.32;98153.08;79066;1296;3011672;-77
2024/01/05 10:31:15;;;;;;;21.20;12.10;;;;;;;8.82;81.78;98152.73;79642;1301;3013516;-76
2024/01/05 10:33:48;;;;;;;25.90;11.60;;;;;;;8.64;82.46;98155.96;79150;1295;3011715;-76
2024/01/05 10:36:19;;;;;;;24.80;11.40;;;;;;;8.52;82.77;98158.46;79619;1298;3013237;-72
2024/01/05 10:38:47;;;;;;;18.90;9.90;;;;;;;7.99;84.60;98157.96;78405;1295;3052546;-70
2024/01/05 10:41:23;;;;;;;20.40;10.40;;;;;;;8.00;85.43;98164.42;79727;1298;3014240;-77
2024/01/05 10:43:51;;;;;;;16.60;8.20;;;;;;;7.90;86.14;98167.73;78396;1301;3052900;-70
2024/01/05 10:46:18;;;;;;;18.30;8.60;;;;;;;8.46;85.12;98161.64;79597;1298;3012948;-65
2024/01/05 10:48:45;;;;;;;15.60;8.30;;;;;;;8.89;83.52;98165.67;79470;1301;3013692;-72
2024/01/05 10:51:18;;;;;;;13.30;7.80;;;;;;;9.29;82.35;98164.98;78343;1295;3027319;-70
2024/01/05 10:53:47;;;;;;;15.00;7.70;;;;;;;9.09;81.89;98170.61;79648;1295;3012249;-68
2024/01/05 10:56:15;;;;;;;10.30;6.40;;;;;;;8.83;83.03;98167.90;78338;1300;3051149;-70
2024/01/05 10:58:42;;;;;;;13.00;7.00;;;;;;;8.79;82.95;98176.00;79584;1301;3013033;-71
2024/01/05 11:01:09;;;;;;;12.90;7.70;;;;;;;8.71;83.28;98181.14;79769;1300;3011895;-71
2024/01/05 11:03:38;;;;;;;12.00;7.60;;;;;;;8.58;84.51;98181.42;78626;1295;3051368;-74
2024/01/05 11:06:09;;;;;;;16.40;8.60;;;;;;;8.52;84.11;98189.33;80900;1300;3013030;-73
2024/01/05 11:09:00;;;;;;;13.90;7.30;;;;;;;8.42;84.29;98190.91;80734;1295;3054694;-67
2024/01/05 11:11:34;;;;;;;14.30;8.50;;;;;;;9.04;83.26;98190.29;79885;1295;3049846;-73
2024/01/05 11:14:05;;;;;;;15.50;8.00;;;;;;;9.48;81.80;98192.20;82010;1295;3011336;-74
2024/01/05 11:16:48;;;;;;;15.40;9.40;;;;;;;9.52;80.90;98193.46;80176;1295;3051920;-80
2024/01/05 11:19:40;;;;;;;18.40;10.00;;;;;;;9.40;81.26;98198.52;78614;1296;3068597;-69
2024/01/05 11:22:15;;;;;;;19.90;10.40;;;;;;;9.21;81.58;98199.43;78492;1300;3050630;-72